createdAt,value
2023-04-11T00:00:04.840Z,2.75
2023-04-11T00:02:38.081Z,2.50
2023-04-11T00:05:11.130Z,3.85
2023-04-11T00:07:42.539Z,2.30
2023-04-11T00:10:14.071Z,2.58
2023-04-11T00:12:45.832Z,3.08
2023-04-11T00:15:17.430Z,2.55
2023-04-11T00:17:49.110Z,2.60
2023-04-11T00:20:20.581Z,3.75
2023-04-11T00:22:54.071Z,3.37
2023-04-11T00:25:27.040Z,3.42
2023-04-11T00:27:59.022Z,2.70
2023-04-11T00:30:30.606Z,2.62
2023-04-11T00:33:02.128Z,2.95
2023-04-11T00:35:34.750Z,2.95
2023-04-11T00:38:06.288Z,3.08
2023-04-11T00:40:37.744Z,2.92
2023-04-11T00:43:09.468Z,2.65
2023-04-11T00:45:41.075Z,3.15
2023-04-11T00:48:12.679Z,3.42
2023-04-11T00:50:45.168Z,3.10
2023-04-11T00:53:18.861Z,3.02
2023-04-11T00:55:51.130Z,2.83
2023-04-11T00:58:22.625Z,3.70
2023-04-11T01:00:54.073Z,3.30
2023-04-11T01:03:25.779Z,3.45
2023-04-11T01:05:57.586Z,3.37
2023-04-11T01:08:29.262Z,3.15
2023-04-11T01:11:00.970Z,2.60
2023-04-11T01:13:34.412Z,3.75
2023-04-11T01:16:06.369Z,2.75
2023-04-11T01:18:38.094Z,2.92
2023-04-11T01:21:11.849Z,2.95
2023-04-11T01:23:43.400Z,2.45
2023-04-11T01:26:16.269Z,2.75
2023-04-11T01:28:48.129Z,2.87
2023-04-11T01:31:19.620Z,2.55
2023-04-11T01:33:51.188Z,2.40
2023-04-11T01:36:23.362Z,3.72
2023-04-11T01:38:55.133Z,2.10
2023-04-11T01:41:27.774Z,2.70
2023-04-11T01:43:59.509Z,2.80
2023-04-11T01:46:31.197Z,3.00
2023-04-11T01:49:02.891Z,2.25
2023-04-11T01:51:34.312Z,1.65
2023-04-11T01:54:06.549Z,2.00
2023-04-11T01:56:37.954Z,1.75
2023-04-11T01:59:09.427Z,2.33
2023-04-11T02:01:42.385Z,1.77
2023-04-11T02:04:15.026Z,1.60
2023-04-11T02:06:46.528Z,2.12
2023-04-11T02:09:18.124Z,1.98
2023-04-11T02:11:49.528Z,1.40
2023-04-11T02:14:23.071Z,1.82
2023-04-11T02:16:55.596Z,2.17
2023-04-11T02:19:27.813Z,1.90
2023-04-11T02:21:59.307Z,1.52
2023-04-11T02:24:30.846Z,1.87
2023-04-11T02:27:03.625Z,2.10
2023-04-11T02:29:35.225Z,2.00
2023-04-11T02:32:06.967Z,2.05
2023-04-11T02:34:38.764Z,2.30
2023-04-11T02:37:10.366Z,2.42
2023-04-11T02:39:41.854Z,2.00
2023-04-11T02:42:14.884Z,2.42
2023-04-11T02:44:46.366Z,1.70
2023-04-11T02:47:17.878Z,2.35
2023-04-11T02:49:49.287Z,1.87
2023-04-11T02:52:20.832Z,2.05
2023-04-11T02:54:52.228Z,2.15
2023-04-11T02:57:23.718Z,1.95
2023-04-11T02:59:55.120Z,2.47
2023-04-11T03:02:26.808Z,2.15
2023-04-11T03:04:58.393Z,2.02
2023-04-11T03:07:30.008Z,1.72
2023-04-11T03:10:01.397Z,2.10
2023-04-11T03:12:32.889Z,1.98
2023-04-11T03:15:04.727Z,2.27
2023-04-11T03:17:36.447Z,2.95
2023-04-11T03:20:11.879Z,2.22
2023-04-11T03:22:43.509Z,2.33
2023-04-11T03:25:15.182Z,2.37
2023-04-11T03:27:46.784Z,2.45
2023-04-11T03:30:18.200Z,2.35
2023-04-11T03:32:49.901Z,2.20
2023-04-11T03:35:22.038Z,2.65
2023-04-11T03:37:53.628Z,2.08
2023-04-11T03:40:25.413Z,2.50
2023-04-11T03:42:57.525Z,3.08
2023-04-11T03:45:29.026Z,2.92
2023-04-11T03:48:00.768Z,2.75
2023-04-11T03:50:32.520Z,3.02
2023-04-11T03:53:04.502Z,2.92
2023-04-11T03:55:35.872Z,3.33
2023-04-11T03:58:07.394Z,2.50
2023-04-11T04:00:39.065Z,3.05
2023-04-11T04:03:11.237Z,2.52
2023-04-11T04:05:43.097Z,2.90
2023-04-11T04:08:15.449Z,2.87
2023-04-11T04:10:47.548Z,2.60
2023-04-11T04:13:19.037Z,2.42
2023-04-11T04:15:53.241Z,2.33
2023-04-11T04:18:24.907Z,2.75
2023-04-11T04:20:56.364Z,3.35
2023-04-11T04:23:30.096Z,2.92
2023-04-11T04:26:02.107Z,2.58
2023-04-11T04:28:33.746Z,2.70
2023-04-11T04:31:05.443Z,3.95
2023-04-11T04:33:40.261Z,2.80
2023-04-11T04:36:13.333Z,4.30
2023-04-11T04:38:45.304Z,3.42
2023-04-11T04:41:18.518Z,2.58
2023-04-11T04:43:50.048Z,2.37
2023-04-11T04:46:23.101Z,2.77
2023-04-11T04:48:54.783Z,2.22
2023-04-11T04:51:27.406Z,2.67
2023-04-11T04:53:59.433Z,2.20
2023-04-11T04:56:30.816Z,2.37
2023-04-11T04:59:02.495Z,3.02
2023-04-11T05:01:35.413Z,2.42
2023-04-11T05:04:07.217Z,2.40
2023-04-11T05:06:39.014Z,3.27
2023-04-11T05:09:10.687Z,3.00
2023-04-11T05:11:42.145Z,3.87
2023-04-11T05:14:13.628Z,3.50
2023-04-11T05:16:45.394Z,2.25
2023-04-11T05:19:16.758Z,3.08
2023-04-11T05:21:48.297Z,3.12
2023-04-11T05:24:19.785Z,3.00
2023-04-11T05:26:51.343Z,3.80
2023-04-11T05:29:23.016Z,3.75
2023-04-11T05:31:54.811Z,4.92
2023-04-11T05:34:26.512Z,2.62
2023-04-11T05:36:58.307Z,2.40
2023-04-11T05:39:31.468Z,3.10
2023-04-11T05:42:07.432Z,2.87
2023-04-11T05:44:39.828Z,2.42
2023-04-11T05:47:12.248Z,2.50
2023-04-11T05:49:44.413Z,3.25
2023-04-11T05:52:16.321Z,2.47
2023-04-11T05:54:47.732Z,2.75
2023-04-11T05:57:19.298Z,3.12
2023-04-11T05:59:52.458Z,5.75
2023-04-11T06:02:24.157Z,3.60
2023-04-11T06:04:55.846Z,4.70
2023-04-11T06:07:28.410Z,3.98
2023-04-11T06:09:59.867Z,4.00
2023-04-11T06:12:31.630Z,6.20
2023-04-11T06:15:04.721Z,3.95
2023-04-11T06:17:36.489Z,4.47
2023-04-11T06:20:10.370Z,2.92
2023-04-11T06:22:41.991Z,2.72
2023-04-11T06:25:14.344Z,2.33
2023-04-11T06:27:46.076Z,1.80
2023-04-11T06:30:17.808Z,1.70
2023-04-11T06:32:49.503Z,1.65
2023-04-11T06:35:22.673Z,1.67
2023-04-11T06:37:54.219Z,2.00
2023-04-11T06:40:25.696Z,1.90
2023-04-11T06:42:59.567Z,21.87
2023-04-11T06:45:31.511Z,2.60
2023-04-11T06:48:03.151Z,2.35
2023-04-11T06:50:36.196Z,1.80
2023-04-11T06:53:07.709Z,1.82
2023-04-11T06:55:39.481Z,1.60
2023-04-11T06:58:10.961Z,2.00
2023-04-11T07:00:42.549Z,1.57
2023-04-11T07:03:14.128Z,1.20
2023-04-11T07:05:45.712Z,1.52
2023-04-11T07:08:17.186Z,2.27
2023-04-11T07:10:48.676Z,6.33
2023-04-11T07:13:21.200Z,2.62
2023-04-11T07:15:52.498Z,1.35
2023-04-11T07:18:25.876Z,1.10
2023-04-11T07:20:57.567Z,1.37
2023-04-11T07:23:29.133Z,0.82
2023-04-11T07:26:00.995Z,0.70
2023-04-11T07:31:12.238Z,0.40
2023-04-11T07:33:45.610Z,0.40
2023-04-11T07:36:17.824Z,0.68
2023-04-11T07:38:49.409Z,1.25
2023-04-11T07:41:20.958Z,0.60
2023-04-11T07:43:52.453Z,0.30
2023-04-11T07:46:24.026Z,0.37
2023-04-11T07:48:55.699Z,0.23
2023-04-11T07:51:27.740Z,0.42
2023-04-11T07:53:59.212Z,0.20
2023-04-11T07:56:30.793Z,0.10
2023-04-11T07:59:02.193Z,0.20
2023-04-11T08:01:33.700Z,0.20
2023-04-11T08:04:07.080Z,0.00
2023-04-11T08:06:39.242Z,0.30
2023-04-11T08:09:10.979Z,0.00
2023-04-11T08:11:42.500Z,0.10
2023-04-11T08:14:13.924Z,0.10
2023-04-11T08:16:45.529Z,0.10
2023-04-11T08:19:17.213Z,0.10
2023-04-11T08:21:48.807Z,0.20
2023-04-11T08:24:20.321Z,0.20
2023-04-11T08:26:51.800Z,0.10
2023-04-11T08:29:23.473Z,0.57
2023-04-11T08:31:56.185Z,0.62
2023-04-11T08:34:27.611Z,1.15
2023-04-11T08:36:59.076Z,0.85
2023-04-11T08:39:30.509Z,0.70
2023-04-11T08:42:02.449Z,0.37
2023-04-11T08:44:33.828Z,0.40
2023-04-11T08:47:06.880Z,5.40
2023-04-11T08:49:38.357Z,0.80
2023-04-11T08:52:10.178Z,0.30
2023-04-11T08:54:42.157Z,0.30
2023-04-11T08:57:25.187Z,0.20
2023-04-11T08:59:59.846Z,0.40
2023-04-11T09:02:31.484Z,0.45
2023-04-11T09:05:04.205Z,0.78
2023-04-11T09:07:49.941Z,1.25
2023-04-11T09:10:23.286Z,0.40
2023-04-11T09:12:56.537Z,0.68
2023-04-11T09:15:30.168Z,0.65
2023-04-11T09:18:01.761Z,0.72
2023-04-11T09:20:33.157Z,0.80
2023-04-11T09:23:04.667Z,0.80
2023-04-11T09:25:45.384Z,0.45
2023-04-11T09:28:17.005Z,0.50
2023-04-11T09:30:53.034Z,0.90
2023-04-11T09:33:27.930Z,0.50
2023-04-11T09:35:59.426Z,0.75
2023-04-11T09:38:32.576Z,0.88
2023-04-11T09:41:05.456Z,0.98
2023-04-11T09:43:51.729Z,0.72
2023-04-11T09:46:26.859Z,2.25
2023-04-11T09:49:00.758Z,0.85
2023-04-11T09:51:43.564Z,0.93
2023-04-11T09:54:16.658Z,0.40
2023-04-11T09:56:48.615Z,1.15
2023-04-11T09:59:22.309Z,1.00
2023-04-11T10:01:54.311Z,1.50
2023-04-11T10:04:27.864Z,1.27
2023-04-11T10:07:04.444Z,0.70
2023-04-11T10:09:39.443Z,0.90
2023-04-11T10:12:12.953Z,1.20
2023-04-11T10:14:51.222Z,1.50
2023-04-11T10:17:24.121Z,0.70
2023-04-11T10:19:57.517Z,0.60
2023-04-11T10:23:02.092Z,0.70
2023-04-11T10:25:35.050Z,0.82
2023-04-11T10:28:06.538Z,0.60
2023-04-11T10:31:04.057Z,0.88
2023-04-11T10:33:37.377Z,0.70
2023-04-11T10:36:12.161Z,0.82
2023-04-11T10:38:47.914Z,0.80
2023-04-11T10:41:32.040Z,0.85
2023-04-11T10:44:24.541Z,0.85
2023-04-11T10:46:57.132Z,1.32
2023-04-11T10:49:37.204Z,0.90
2023-04-11T10:52:22.508Z,0.50
2023-04-11T10:54:55.349Z,0.60
2023-04-11T10:57:26.816Z,0.80
2023-04-11T11:00:06.746Z,2.17
2023-04-11T11:02:40.256Z,1.20
2023-04-11T11:05:22.217Z,0.90
2023-04-11T11:07:54.882Z,0.80
2023-04-11T11:10:43.342Z,0.65
2023-04-11T11:13:17.264Z,0.53
2023-04-11T11:15:52.539Z,0.82
2023-04-11T11:18:24.084Z,0.68
2023-04-11T11:20:58.657Z,0.60
2023-04-11T11:23:30.871Z,0.70
2023-04-11T11:26:02.685Z,0.50
2023-04-11T11:28:34.271Z,0.37
2023-04-11T11:31:06.192Z,0.60
2023-04-11T11:34:23.065Z,0.90
2023-04-11T11:36:43.503Z,0.78
2023-04-11T11:39:49.186Z,0.80
2023-04-11T11:42:21.851Z,1.00
2023-04-11T11:44:53.322Z,6.62
2023-04-11T11:47:25.981Z,2.27
2023-04-11T11:49:57.711Z,0.82
2023-04-11T11:52:36.976Z,2.05
2023-04-11T11:55:11.685Z,0.70
2023-04-11T11:57:47.265Z,1.17
2023-04-11T12:00:25.244Z,0.70
2023-04-11T12:02:59.288Z,0.85
2023-04-11T12:05:35.059Z,0.60
2023-04-11T12:08:08.930Z,0.90
2023-04-11T12:10:42.826Z,0.80
2023-04-11T12:13:16.860Z,0.80
2023-04-11T12:15:53.389Z,1.20
2023-04-11T12:18:26.131Z,1.02
2023-04-11T12:20:58.781Z,1.20
2023-04-11T12:23:30.286Z,1.10
2023-04-11T12:26:02.157Z,1.10
2023-04-11T12:28:33.597Z,1.60
2023-04-11T12:31:05.306Z,1.32
2023-04-11T12:33:37.067Z,0.78
2023-04-11T12:36:10.218Z,1.67
2023-04-11T12:38:42.112Z,1.42
2023-04-11T12:41:31.735Z,0.70
2023-04-11T12:43:46.639Z,1.62
2023-04-11T12:46:19.332Z,2.20
2023-04-11T12:48:50.586Z,1.00
2023-04-11T12:51:22.053Z,1.12
2023-04-11T12:53:53.823Z,1.00
2023-04-11T12:56:25.347Z,1.12
2023-04-11T12:58:57.055Z,1.22
2023-04-11T13:01:28.975Z,2.02
2023-04-11T13:04:00.657Z,6.67
2023-04-11T13:06:33.831Z,1.05
2023-04-11T13:09:07.589Z,1.10
2023-04-11T13:11:39.404Z,1.20
2023-04-11T13:14:10.830Z,1.57
2023-04-11T13:16:44.037Z,2.15
2023-04-11T13:19:15.545Z,0.70
2023-04-11T13:21:47.007Z,1.10
2023-04-11T13:24:18.677Z,0.82
2023-04-11T13:26:50.898Z,1.32
2023-04-11T13:29:22.327Z,1.32
2023-04-11T13:31:53.893Z,1.32
2023-04-11T13:34:26.433Z,1.02
2023-04-11T13:36:57.918Z,0.95
2023-04-11T13:39:30.607Z,0.40
2023-04-11T13:42:02.089Z,1.00
2023-04-11T13:44:33.504Z,0.60
2023-04-11T13:47:05.191Z,1.35
2023-04-11T13:49:36.361Z,0.72
2023-04-11T13:52:07.909Z,1.27
2023-04-11T13:54:39.539Z,1.02
2023-04-11T13:57:11.139Z,1.55
2023-04-11T13:59:42.554Z,2.00
2023-04-11T14:02:14.117Z,1.57
2023-04-11T14:04:45.594Z,1.40
2023-04-11T14:07:17.001Z,1.17
2023-04-11T14:09:48.483Z,1.20
2023-04-11T14:12:19.879Z,1.30
2023-04-11T14:14:51.484Z,2.35
2023-04-11T14:17:22.901Z,0.98
2023-04-11T14:19:54.468Z,1.37
2023-04-11T14:22:27.386Z,2.72
2023-04-11T14:24:59.165Z,1.07
2023-04-11T14:27:30.908Z,1.60
2023-04-11T14:30:02.649Z,1.40
2023-04-11T14:32:34.731Z,1.27
2023-04-11T14:35:09.969Z,1.10
2023-04-11T14:37:41.707Z,1.10
2023-04-11T14:40:14.104Z,1.42
2023-04-11T14:42:50.283Z,1.62
2023-04-11T14:45:22.086Z,1.15
2023-04-11T14:47:53.581Z,1.10
2023-04-11T14:50:26.980Z,1.62
2023-04-11T14:52:58.598Z,1.10
2023-04-11T14:55:30.135Z,1.15
2023-04-11T14:58:01.581Z,1.32
2023-04-11T15:00:33.943Z,1.20
2023-04-11T15:03:05.661Z,1.00
2023-04-11T15:05:37.385Z,7.97
2023-04-11T15:08:09.805Z,1.20
2023-04-11T15:10:41.470Z,1.00
2023-04-11T15:13:12.905Z,1.70
2023-04-11T15:15:44.539Z,1.05
2023-04-11T15:18:24.432Z,0.90
2023-04-11T15:20:57.150Z,0.93
2023-04-11T15:23:28.947Z,1.00
2023-04-11T15:26:03.019Z,0.90
2023-04-11T15:28:36.140Z,0.70
2023-04-11T15:31:09.910Z,1.10
2023-04-11T15:33:43.425Z,0.93
2023-04-11T15:36:16.503Z,1.15
2023-04-11T15:38:48.254Z,1.45
2023-04-11T15:41:19.872Z,1.87
2023-04-11T15:43:51.486Z,1.50
2023-04-11T15:46:23.082Z,1.15
2023-04-11T15:48:54.910Z,2.35
2023-04-11T15:51:27.126Z,1.42
2023-04-11T15:54:12.273Z,1.22
2023-04-11T15:56:43.984Z,0.70
2023-04-11T15:59:16.571Z,1.85
2023-04-11T16:01:48.535Z,1.20
2023-04-11T16:04:20.524Z,1.30
2023-04-11T16:06:52.521Z,1.05
2023-04-11T16:09:24.153Z,8.55
2023-04-11T16:11:56.921Z,3.37
2023-04-11T16:14:28.876Z,1.70
2023-04-11T16:17:00.368Z,1.40
2023-04-11T16:19:31.881Z,1.17
2023-04-11T16:22:03.534Z,0.93
2023-04-11T16:24:35.135Z,0.90
2023-04-11T16:27:06.559Z,0.70
2023-04-11T16:29:39.858Z,2.17
2023-04-11T16:32:11.410Z,2.00
2023-04-11T16:34:43.598Z,0.90
2023-04-11T16:37:15.342Z,1.75
2023-04-11T16:39:47.077Z,1.92
2023-04-11T16:42:18.682Z,1.00
2023-04-11T16:44:50.237Z,0.88
2023-04-11T16:47:23.583Z,1.30
2023-04-11T16:49:55.099Z,1.75
2023-04-11T16:52:26.951Z,1.00
2023-04-11T16:54:58.414Z,0.80
2023-04-11T16:57:29.907Z,0.65
2023-04-11T17:00:03.104Z,1.00
2023-04-11T17:02:34.710Z,1.00
2023-04-11T17:05:08.686Z,1.27
2023-04-11T17:07:41.071Z,1.25
2023-04-11T17:10:13.490Z,0.90
2023-04-11T17:12:53.542Z,0.80
2023-04-11T17:15:25.215Z,1.47
2023-04-11T17:17:56.792Z,0.72
2023-04-11T17:20:28.320Z,1.57
2023-04-11T17:22:59.955Z,1.30
2023-04-11T17:25:31.957Z,1.30
2023-04-11T17:28:03.941Z,1.75
2023-04-11T17:30:35.601Z,1.10
2023-04-11T17:33:08.605Z,1.60
2023-04-11T17:35:40.148Z,2.90
2023-04-11T17:38:11.790Z,1.40
2023-04-11T17:40:43.292Z,1.32
2023-04-11T17:43:15.394Z,1.02
2023-04-11T17:45:48.094Z,1.27
2023-04-11T17:48:21.636Z,0.98
2023-04-11T17:50:53.749Z,5.03
2023-04-11T17:53:25.241Z,7.62
2023-04-11T17:55:57.531Z,11.97
2023-04-11T18:01:16.127Z,16.97
2023-04-11T18:03:48.383Z,15.20
2023-04-11T18:06:20.118Z,16.87
2023-04-11T18:08:52.417Z,18.77
2023-04-11T18:11:23.902Z,15.23
2023-04-11T18:13:55.917Z,14.75
2023-04-11T18:16:27.917Z,13.00
2023-04-11T18:18:59.603Z,13.83
2023-04-11T18:21:31.209Z,11.78
2023-04-11T18:24:03.950Z,9.45
2023-04-11T18:26:35.636Z,11.05
2023-04-11T18:29:07.457Z,7.03
2023-04-11T18:31:39.149Z,9.18
2023-04-11T18:34:10.909Z,7.30
2023-04-11T18:36:43.521Z,7.03
2023-04-11T18:39:15.712Z,6.78
2023-04-11T18:41:48.140Z,3.45
2023-04-11T18:44:19.906Z,2.95
2023-04-11T18:46:52.732Z,2.15
2023-04-11T18:49:25.216Z,1.70
2023-04-11T18:51:56.874Z,1.80
2023-04-11T18:54:28.317Z,1.95
2023-04-11T18:57:00.166Z,2.85
2023-04-11T18:59:35.959Z,2.37
2023-04-11T19:02:06.643Z,2.40
2023-04-11T19:04:40.202Z,1.75
2023-04-11T19:07:12.516Z,1.47
2023-04-11T19:09:46.259Z,1.35
2023-04-11T19:12:19.407Z,1.75
2023-04-11T19:14:51.066Z,2.05
2023-04-11T19:17:23.187Z,2.60
2023-04-11T19:19:54.681Z,1.40
2023-04-11T19:22:26.312Z,2.02
2023-04-11T19:24:58.066Z,2.00
2023-04-11T19:27:29.663Z,1.90
2023-04-11T19:30:01.134Z,1.92
2023-04-11T19:32:34.682Z,2.98
2023-04-11T19:35:08.698Z,2.05
2023-04-11T19:37:41.248Z,3.00
2023-04-11T19:40:14.086Z,2.25
2023-04-11T19:42:46.570Z,1.95
2023-04-11T19:45:18.140Z,3.40
2023-04-11T19:47:49.682Z,1.85
2023-04-11T19:50:22.799Z,1.75
2023-04-11T19:52:57.292Z,2.02
2023-04-11T19:55:29.363Z,1.87
2023-04-11T19:58:01.606Z,2.33
2023-04-11T20:00:35.234Z,2.33
2023-04-11T20:03:08.159Z,2.90
2023-04-11T20:05:40.339Z,2.92
2023-04-11T20:08:12.217Z,3.37
2023-04-11T20:10:43.925Z,3.20
2023-04-11T20:13:16.477Z,3.22
2023-04-11T20:15:47.985Z,3.52
2023-04-11T20:18:19.453Z,3.98
2023-04-11T20:20:51.571Z,3.65
2023-04-11T20:23:24.284Z,3.92
2023-04-11T20:25:55.761Z,4.95
2023-04-11T20:28:27.296Z,7.87
2023-04-11T20:30:59.464Z,6.50
2023-04-11T20:33:31.830Z,6.55
2023-04-11T20:36:03.926Z,7.97
2023-04-11T20:38:35.429Z,8.50
2023-04-11T20:41:08.675Z,6.25
2023-04-11T20:43:42.609Z,4.50
2023-04-11T20:46:19.633Z,6.55
2023-04-11T20:48:52.167Z,4.00
2023-04-11T20:51:25.057Z,4.20
2023-04-11T20:53:57.516Z,3.00
2023-04-11T20:56:30.982Z,4.17
2023-04-11T20:59:02.583Z,3.45
2023-04-11T21:01:34.098Z,3.52
2023-04-11T21:04:06.235Z,2.90
2023-04-11T21:06:37.922Z,3.75
2023-04-11T21:09:09.434Z,2.65
2023-04-11T21:11:41.049Z,2.72
2023-04-11T21:14:12.428Z,2.25
2023-04-11T21:16:43.895Z,3.00
2023-04-11T21:19:15.298Z,2.30
2023-04-11T21:21:47.244Z,2.67
2023-04-11T21:24:18.662Z,2.35
2023-04-11T21:26:50.434Z,2.40
2023-04-11T21:29:21.843Z,2.20
2023-04-11T21:31:53.446Z,2.95
2023-04-11T21:34:24.977Z,3.20
2023-04-11T21:36:57.850Z,2.77
2023-04-11T21:39:29.314Z,2.95
2023-04-11T21:42:01.296Z,3.02
2023-04-11T21:44:32.985Z,3.70
2023-04-11T21:47:04.763Z,3.27
2023-04-11T21:49:36.416Z,2.98
2023-04-11T21:52:08.710Z,6.03
2023-04-11T21:54:40.190Z,3.40
2023-04-11T21:57:11.949Z,3.37
2023-04-11T21:59:43.466Z,2.80
2023-04-11T22:02:15.704Z,2.75
2023-04-11T22:05:05.527Z,3.72
2023-04-11T22:07:30.014Z,2.77
2023-04-11T22:10:03.733Z,2.55
2023-04-11T22:12:35.330Z,2.20
2023-04-11T22:15:10.557Z,2.83
2023-04-11T22:17:43.854Z,3.20
2023-04-11T22:20:16.548Z,2.83
2023-04-11T22:22:48.039Z,2.70
2023-04-11T22:25:21.239Z,2.35
2023-04-11T22:27:54.323Z,3.25
2023-04-11T22:30:27.210Z,2.40
2023-04-11T22:32:58.806Z,2.87
2023-04-11T22:35:30.473Z,2.55
2023-04-11T22:38:03.444Z,2.90
2023-04-11T22:40:39.049Z,2.65
2023-04-11T22:43:10.906Z,2.30
2023-04-11T22:45:43.339Z,2.10
2023-04-11T22:48:14.787Z,2.42
2023-04-11T22:50:48.298Z,2.08
2023-04-11T22:53:19.761Z,2.83
2023-04-11T22:55:51.774Z,2.65
2023-04-11T22:58:23.461Z,2.52
2023-04-11T23:00:55.660Z,2.40
2023-04-11T23:03:29.135Z,3.47
2023-04-11T23:06:00.704Z,2.52
2023-04-11T23:08:32.675Z,2.75
2023-04-11T23:11:04.159Z,2.87
2023-04-11T23:13:35.863Z,3.33
2023-04-11T23:16:09.365Z,2.55
2023-04-11T23:18:40.791Z,2.65
2023-04-11T23:21:14.529Z,2.77
2023-04-11T23:23:45.963Z,2.60
2023-04-11T23:26:20.522Z,2.85
2023-04-11T23:28:52.597Z,3.22
2023-04-11T23:31:24.154Z,3.00
2023-04-11T23:33:56.068Z,3.70
2023-04-11T23:36:29.376Z,3.22
2023-04-11T23:39:02.238Z,3.58
2023-04-11T23:41:34.296Z,4.00
2023-04-11T23:44:05.698Z,5.03
2023-04-11T23:46:37.468Z,4.42
2023-04-11T23:49:08.945Z,5.40
2023-04-11T23:51:40.514Z,4.10
2023-04-11T23:54:11.984Z,5.90
2023-04-11T23:56:44.390Z,4.53
2023-04-11T23:59:16.284Z,5.30
